createdAt,value
2022-10-14T00:00:01.778Z,98807.72
2022-10-14T00:02:28.119Z,98802.03
2022-10-14T00:04:54.466Z,98801.03
2022-10-14T00:07:21.004Z,98797.59
2022-10-14T00:09:47.527Z,98797.91
2022-10-14T00:12:13.862Z,98798.28
2022-10-14T00:14:40.221Z,98793.84
2022-10-14T00:17:06.567Z,98793.56
2022-10-14T00:19:32.923Z,98796.16
2022-10-14T00:21:59.272Z,98797.19
2022-10-14T00:24:25.688Z,98799.72
2022-10-14T00:26:52.024Z,98796.47
2022-10-14T00:29:19.280Z,98793.50
2022-10-14T00:31:46.714Z,98795.28
2022-10-14T00:34:15.701Z,98792.81
2022-10-14T00:36:43.091Z,98805.09
2022-10-14T00:39:10.242Z,98798.88
2022-10-14T00:41:37.319Z,98793.75
2022-10-14T00:44:12.834Z,98798.44
2022-10-14T00:46:45.013Z,98793.66
2022-10-14T00:49:17.880Z,98806.03
2022-10-14T00:52:10.643Z,98803.66
2022-10-14T00:54:42.298Z,98805.09
2022-10-14T00:57:10.115Z,98798.34
2022-10-14T00:59:37.280Z,98787.97
2022-10-14T01:02:03.731Z,98798.28
2022-10-14T01:04:30.615Z,98793.06
2022-10-14T01:07:15.218Z,98790.44
2022-10-14T01:09:53.875Z,98790.56
2022-10-14T01:12:54.294Z,98790.94
2022-10-14T01:15:33.498Z,98790.56
2022-10-14T01:18:20.347Z,98793.19
2022-10-14T01:20:56.438Z,98796.59
2022-10-14T01:23:53.444Z,98801.03
2022-10-14T01:26:44.606Z,98790.81
2022-10-14T01:29:31.119Z,98787.38
2022-10-14T01:32:06.386Z,98789.78
2022-10-14T01:34:40.841Z,98785.00
2022-10-14T01:37:13.275Z,98785.94
2022-10-14T01:39:45.826Z,98785.34
2022-10-14T01:42:18.601Z,98786.97
2022-10-14T01:44:51.726Z,98791.00
2022-10-14T01:47:21.054Z,98785.34
2022-10-14T01:49:53.988Z,98791.59
2022-10-14T01:52:27.344Z,98777.81
2022-10-14T01:54:59.055Z,98782.25
2022-10-14T01:57:29.630Z,98784.00
2022-10-14T01:59:56.779Z,98777.59
2022-10-14T02:02:24.513Z,98771.13
2022-10-14T02:04:51.638Z,98768.75
2022-10-14T02:07:28.262Z,98760.41
2022-10-14T02:10:36.486Z,98764.41
2022-10-14T02:13:26.679Z,98762.44
2022-10-14T02:16:01.906Z,98771.72
2022-10-14T02:18:40.255Z,98766.72
2022-10-14T02:21:33.796Z,98765.53
2022-10-14T02:24:07.885Z,98757.06
2022-10-14T02:26:36.868Z,98758.53
2022-10-14T02:29:05.001Z,98752.09
2022-10-14T02:31:34.468Z,98755.59
2022-10-14T02:34:03.992Z,98753.56
2022-10-14T02:36:33.185Z,98747.97
2022-10-14T02:39:01.131Z,98759.72
2022-10-14T02:41:36.180Z,98757.13
2022-10-14T02:44:05.188Z,98750.09
2022-10-14T02:46:32.529Z,98748.88
2022-10-14T02:48:58.964Z,98742.09
2022-10-14T02:51:25.723Z,98744.34
2022-10-14T02:53:52.055Z,98733.84
2022-10-14T02:56:19.478Z,98731.00
2022-10-14T02:58:46.204Z,98740.63
2022-10-14T03:01:12.571Z,98733.53
2022-10-14T03:03:38.919Z,98732.97
2022-10-14T03:06:05.503Z,98732.97
2022-10-14T03:08:31.837Z,98731.72
2022-10-14T03:10:58.449Z,98739.78
2022-10-14T03:13:24.814Z,98736.94
2022-10-14T03:15:51.406Z,98738.09
2022-10-14T03:18:18.405Z,98727.38
2022-10-14T03:20:45.004Z,98726.38
2022-10-14T03:23:12.217Z,98730.84
2022-10-14T03:25:39.372Z,98737.66
2022-10-14T03:28:05.852Z,98737.44
2022-10-14T03:30:32.223Z,98734.84
2022-10-14T03:32:58.583Z,98744.69
2022-10-14T03:35:24.977Z,98730.22
2022-10-14T03:37:53.552Z,98734.59
2022-10-14T03:40:19.942Z,98728.81
2022-10-14T03:42:46.979Z,98725.78
2022-10-14T03:45:13.407Z,98725.97
2022-10-14T03:47:39.757Z,98720.31
2022-10-14T03:50:06.540Z,98722.16
2022-10-14T03:52:32.961Z,98720.75
2022-10-14T03:54:59.502Z,98723.38
2022-10-14T03:57:26.003Z,98723.38
2022-10-14T03:59:52.380Z,98727.59
2022-10-14T04:02:18.954Z,98719.63
2022-10-14T04:04:45.569Z,98720.84
2022-10-14T04:07:12.006Z,98714.09
2022-10-14T04:09:38.396Z,98707.28
2022-10-14T04:12:05.362Z,98709.34
2022-10-14T04:14:31.737Z,98708.19
2022-10-14T04:16:58.058Z,98701.00
2022-10-14T04:19:24.458Z,98705.66
2022-10-14T04:21:50.783Z,98703.88
2022-10-14T04:24:17.143Z,98703.72
2022-10-14T04:26:43.679Z,98713.78
2022-10-14T04:29:10.010Z,98705.59
2022-10-14T04:31:36.360Z,98709.59
2022-10-14T04:34:02.789Z,98696.03
2022-10-14T04:36:29.115Z,98700.22
2022-10-14T04:38:55.466Z,98697.78
2022-10-14T04:41:21.898Z,98697.41
2022-10-14T04:43:48.270Z,98702.03
2022-10-14T04:46:14.617Z,98698.06
2022-10-14T04:48:40.939Z,98696.06
2022-10-14T04:51:07.301Z,98694.53
2022-10-14T04:53:33.673Z,98691.22
2022-10-14T04:56:00.034Z,98685.72
2022-10-14T04:58:26.362Z,98691.63
2022-10-14T05:00:55.055Z,98690.78
2022-10-14T05:03:21.551Z,98682.72
2022-10-14T05:05:48.003Z,98680.00
2022-10-14T05:08:14.458Z,98685.88
2022-10-14T05:10:41.104Z,98686.16
2022-10-14T05:13:08.013Z,98687.72
2022-10-14T05:15:34.725Z,98688.91
2022-10-14T05:18:01.176Z,98689.28
2022-10-14T05:20:27.820Z,98678.59
2022-10-14T05:22:54.403Z,98689.22
2022-10-14T05:25:20.921Z,98684.16
2022-10-14T05:27:47.453Z,98683.91
2022-10-14T05:30:14.301Z,98684.63
2022-10-14T05:32:40.815Z,98675.19
2022-10-14T05:35:07.599Z,98677.28
2022-10-14T05:37:34.146Z,98676.38
2022-10-14T05:40:00.656Z,98681.91
2022-10-14T05:42:27.357Z,98680.25
2022-10-14T05:44:53.833Z,98678.03
2022-10-14T05:47:20.497Z,98688.19
2022-10-14T05:49:47.118Z,98691.41
2022-10-14T05:52:13.606Z,98695.38
2022-10-14T05:54:40.231Z,98688.59
2022-10-14T05:57:06.805Z,98688.06
2022-10-14T05:59:34.843Z,98693.88
2022-10-14T06:02:02.451Z,98682.13
2022-10-14T06:04:29.250Z,98688.72
2022-10-14T06:06:55.782Z,98685.59
2022-10-14T06:09:22.268Z,98693.66
2022-10-14T06:11:48.876Z,98681.19
2022-10-14T06:14:15.354Z,98680.09
2022-10-14T06:16:41.862Z,98687.34
2022-10-14T06:19:08.457Z,98695.31
2022-10-14T06:21:35.044Z,98691.47
2022-10-14T06:24:01.576Z,98683.38
2022-10-14T06:26:28.198Z,98690.03
2022-10-14T06:28:54.837Z,98684.75
2022-10-14T06:31:21.489Z,98683.38
2022-10-14T06:33:48.023Z,98693.38
2022-10-14T06:36:14.575Z,98680.47
2022-10-14T06:38:41.040Z,98678.72
2022-10-14T06:41:10.431Z,98681.47
2022-10-14T06:43:36.908Z,98681.25
2022-10-14T06:46:04.952Z,98684.94
2022-10-14T06:48:34.671Z,98682.91
2022-10-14T06:51:02.332Z,98687.66
2022-10-14T06:53:29.608Z,98684.97
2022-10-14T06:56:01.370Z,98684.97
2022-10-14T06:58:29.431Z,98681.00
2022-10-14T07:03:22.615Z,98686.66
2022-10-14T07:05:49.148Z,98688.84
2022-10-14T07:08:18.115Z,98685.19
2022-10-14T07:10:47.402Z,98684.75
2022-10-14T07:13:14.975Z,98679.97
2022-10-14T07:15:41.489Z,98686.78
2022-10-14T07:18:10.352Z,98682.63
2022-10-14T07:20:36.947Z,98683.00
2022-10-14T07:23:03.422Z,98687.31
2022-10-14T07:25:29.927Z,98689.25
2022-10-14T07:27:56.625Z,98695.84
2022-10-14T07:30:23.248Z,98689.38
2022-10-14T07:32:49.966Z,98699.03
2022-10-14T07:35:16.932Z,98695.31
2022-10-14T07:37:43.647Z,98692.03
2022-10-14T07:40:11.228Z,98689.75
2022-10-14T07:42:38.161Z,98696.25
2022-10-14T07:45:05.804Z,98696.94
2022-10-14T07:47:33.677Z,98701.59
2022-10-14T07:50:02.159Z,98698.44
2022-10-14T07:52:29.031Z,98701.63
2022-10-14T07:54:55.648Z,98701.97
2022-10-14T07:57:28.458Z,98705.06
2022-10-14T07:59:55.367Z,98701.31
2022-10-14T08:02:22.259Z,98702.91
2022-10-14T08:04:52.800Z,98705.28
2022-10-14T08:07:25.626Z,98697.19
2022-10-14T08:09:54.864Z,98697.81
2022-10-14T08:12:24.205Z,98702.59
2022-10-14T08:14:50.978Z,98698.78
2022-10-14T08:17:17.607Z,98700.72
2022-10-14T08:19:44.518Z,98692.16
2022-10-14T08:22:13.330Z,98689.38
2022-10-14T08:24:45.022Z,98684.81
2022-10-14T08:27:13.915Z,98691.59
2022-10-14T08:29:40.841Z,98687.72
2022-10-14T08:32:07.513Z,98686.81
2022-10-14T08:34:34.330Z,98673.63
2022-10-14T08:37:02.226Z,98678.78
2022-10-14T08:39:28.799Z,98677.50
2022-10-14T08:42:13.761Z,98680.47
2022-10-14T08:44:46.395Z,98676.88
2022-10-14T08:47:18.651Z,98673.06
2022-10-14T08:50:05.658Z,98674.97
2022-10-14T08:53:37.398Z,98659.56
2022-10-14T08:56:03.131Z,98672.09
2022-10-14T08:58:34.726Z,98665.47
2022-10-14T09:01:23.342Z,98664.19
2022-10-14T09:04:02.729Z,98666.16
2022-10-14T09:06:33.447Z,98658.34
2022-10-14T09:09:24.086Z,98664.69
2022-10-14T09:11:56.726Z,98656.31
2022-10-14T09:14:27.128Z,98658.22
2022-10-14T09:16:58.582Z,98660.94
2022-10-14T09:19:57.491Z,98650.22
2022-10-14T09:22:25.417Z,98660.38
2022-10-14T09:25:09.465Z,98665.31
2022-10-14T09:27:39.533Z,98661.81
2022-10-14T09:30:45.661Z,98656.84
2022-10-14T09:33:53.565Z,98659.31
2022-10-14T09:36:28.687Z,98654.09
2022-10-14T09:38:56.329Z,98655.53
2022-10-14T09:41:36.695Z,98662.94
2022-10-14T09:44:18.673Z,98659.28
2022-10-14T09:46:57.571Z,98655.16
2022-10-14T09:49:58.865Z,98665.81
2022-10-14T09:52:40.317Z,98662.22
2022-10-14T09:55:37.360Z,98660.44
2022-10-14T09:58:17.237Z,98664.72
2022-10-14T10:00:52.338Z,98661.66
2022-10-14T10:03:51.039Z,98649.84
2022-10-14T10:06:25.728Z,98644.19
2022-10-14T10:09:04.758Z,98640.94
2022-10-14T10:11:42.620Z,98628.59
2022-10-14T10:14:39.917Z,98626.41
2022-10-14T10:17:14.086Z,98617.94
2022-10-14T10:19:52.359Z,98623.91
2022-10-14T10:22:31.474Z,98618.91
2022-10-14T10:25:01.150Z,98610.69
2022-10-14T10:27:41.541Z,98612.38
2022-10-14T10:31:03.578Z,98594.59
2022-10-14T10:34:13.733Z,98588.31
2022-10-14T10:37:25.141Z,98594.75
2022-10-14T10:41:15.941Z,98576.06
2022-10-14T10:44:32.077Z,98577.06
2022-10-14T10:47:54.478Z,98586.31
2022-10-14T10:50:49.394Z,98577.72
2022-10-14T10:53:22.031Z,98563.56
2022-10-14T10:56:22.556Z,98570.13
2022-10-14T11:01:56.337Z,98567.19
2022-10-14T11:04:33.513Z,98569.03
2022-10-14T11:08:04.380Z,98564.28
2022-10-14T11:14:49.738Z,98542.44
2022-10-14T11:18:04.717Z,98529.31
2022-10-14T11:21:23.072Z,98531.13
2022-10-14T11:38:57.147Z,98520.09
2022-10-14T11:53:16.705Z,98505.91
2022-10-14T11:56:12.448Z,98504.03
2022-10-14T11:58:48.934Z,98502.44
2022-10-14T12:01:20.873Z,98498.25
2022-10-14T12:03:59.968Z,98494.53
2022-10-14T12:07:15.911Z,98491.63
2022-10-14T12:09:58.994Z,98483.47
2022-10-14T12:12:40.115Z,98486.38
2022-10-14T12:22:32.622Z,98471.88
2022-10-14T12:25:05.780Z,98462.38
2022-10-14T12:27:58.903Z,98459.50
2022-10-14T12:31:11.318Z,98469.25
2022-10-14T12:34:32.704Z,98465.00
2022-10-14T12:37:31.434Z,98457.91
2022-10-14T12:40:31.991Z,98441.81
2022-10-14T12:43:02.686Z,98453.44
2022-10-14T12:45:32.628Z,98462.41
2022-10-14T12:48:12.458Z,98465.25
2022-10-14T12:50:44.724Z,98447.84
2022-10-14T12:53:31.812Z,98453.91
2022-10-14T12:56:03.329Z,98454.13
2022-10-14T12:58:47.646Z,98446.78
2022-10-14T13:01:36.578Z,98435.19
2022-10-14T13:04:20.978Z,98429.69
2022-10-14T13:07:43.756Z,98426.25
2022-10-14T13:14:28.245Z,98420.19
2022-10-14T13:16:58.043Z,98410.44
2022-10-14T13:19:37.889Z,98403.31
2022-10-14T13:22:28.377Z,98395.94
2022-10-14T13:25:12.084Z,98400.19
2022-10-14T13:27:57.306Z,98402.81
2022-10-14T13:30:48.704Z,98394.91
2022-10-14T13:33:30.252Z,98385.16
2022-10-14T13:36:09.504Z,98382.53
2022-10-14T13:38:38.389Z,98371.47
2022-10-14T13:41:28.324Z,98376.19
2022-10-14T13:44:00.145Z,98375.38
2022-10-14T13:46:36.980Z,98389.91
2022-10-14T13:49:07.087Z,98386.72
2022-10-14T13:51:57.726Z,98389.06
2022-10-14T13:54:26.821Z,98390.63
2022-10-14T14:00:40.815Z,98388.28
2022-10-14T14:03:24.799Z,98375.94
2022-10-14T14:05:55.619Z,98379.09
2022-10-14T14:08:41.482Z,98375.41
2022-10-14T14:11:18.661Z,98368.81
2022-10-14T14:14:01.208Z,98373.81
2022-10-14T14:16:44.848Z,98366.72
2022-10-14T14:19:33.458Z,98368.28
2022-10-14T14:22:30.651Z,98360.66
2022-10-14T14:25:33.605Z,98365.13
2022-10-14T14:28:08.321Z,98359.31
2022-10-14T14:30:39.574Z,98365.66
2022-10-14T14:33:15.729Z,98355.66
2022-10-14T14:36:02.054Z,98348.53
2022-10-14T14:38:37.109Z,98348.53
2022-10-14T14:41:18.209Z,98342.72
2022-10-14T14:47:31.690Z,98339.81
2022-10-14T14:50:25.518Z,98335.34
2022-10-14T14:52:50.542Z,98341.41
2022-10-14T14:55:39.992Z,98345.06
2022-10-14T14:58:20.720Z,98334.28
2022-10-14T15:00:49.061Z,98337.19
2022-10-14T15:03:19.018Z,98325.06
2022-10-14T15:06:19.178Z,98322.94
2022-10-14T15:08:51.092Z,98312.94
2022-10-14T15:11:21.076Z,98310.81
2022-10-14T15:13:56.781Z,98317.16
2022-10-14T15:16:37.308Z,98317.16
2022-10-14T15:19:27.227Z,98308.97
2022-10-14T15:22:28.857Z,98304.78
2022-10-14T15:25:18.066Z,98303.72
2022-10-14T15:27:59.230Z,98299.78
2022-10-14T15:30:38.759Z,98302.59
2022-10-14T15:33:17.694Z,98296.53
2022-10-14T15:35:46.722Z,98295.75
2022-10-14T15:38:16.640Z,98287.81
2022-10-14T15:40:44.781Z,98284.16
2022-10-14T15:43:28.501Z,98283.34
2022-10-14T15:46:25.526Z,98281.00
2022-10-14T15:48:59.543Z,98271.53
2022-10-14T15:51:32.831Z,98275.75
2022-10-14T15:54:01.951Z,98266.56
2022-10-14T15:56:30.529Z,98266.28
2022-10-14T15:59:06.171Z,98266.25
2022-10-14T16:01:37.288Z,98262.06
2022-10-14T16:04:04.925Z,98272.81
2022-10-14T16:06:32.637Z,98260.97
2022-10-14T16:09:02.780Z,98266.22
2022-10-14T16:11:32.844Z,98262.06
2022-10-14T16:14:02.568Z,98255.72
2022-10-14T16:16:36.924Z,98253.34
2022-10-14T16:19:07.055Z,98252.56
2022-10-14T16:21:46.882Z,98247.84
2022-10-14T16:24:25.367Z,98253.91
2022-10-14T16:26:55.830Z,98259.38
2022-10-14T16:29:29.240Z,98267.78
2022-10-14T16:31:56.729Z,98267.56
2022-10-14T16:34:25.100Z,98254.69
2022-10-14T16:36:54.435Z,98267.31
2022-10-14T16:39:27.436Z,98265.44
2022-10-14T16:41:55.817Z,98268.34
2022-10-14T16:44:50.963Z,98263.56
2022-10-14T16:47:21.319Z,98264.09
2022-10-14T16:49:51.988Z,98253.59
2022-10-14T16:52:21.547Z,98252.56
2022-10-14T16:54:57.226Z,98255.19
2022-10-14T16:57:27.990Z,98257.53
2022-10-14T16:59:58.535Z,98265.16
2022-10-14T17:02:32.022Z,98272.50
2022-10-14T17:05:01.307Z,98277.75
2022-10-14T17:07:27.939Z,98285.13
2022-10-14T17:09:54.774Z,98272.78
2022-10-14T17:12:21.745Z,98269.09
2022-10-14T17:14:53.659Z,98281.72
2022-10-14T17:17:24.141Z,98279.56
2022-10-14T17:19:59.982Z,98285.09
2022-10-14T17:22:27.007Z,98290.38
2022-10-14T17:24:54.976Z,98296.03
2022-10-14T17:27:24.295Z,98296.31
2022-10-14T17:29:51.346Z,98290.59
2022-10-14T17:32:20.870Z,98291.78
2022-10-14T17:34:49.590Z,98297.13
2022-10-14T17:37:18.029Z,98289.94
2022-10-14T17:39:47.839Z,98288.03
2022-10-14T17:42:22.223Z,98278.84
2022-10-14T17:45:12.761Z,98286.19
2022-10-14T17:47:39.628Z,98274.41
2022-10-14T17:50:11.964Z,98276.72
2022-10-14T17:52:51.311Z,98274.59
2022-10-14T17:58:26.048Z,98277.50
2022-10-14T18:00:53.022Z,98283.06
2022-10-14T18:04:09.968Z,98278.53
2022-10-14T18:06:37.387Z,98270.44
2022-10-14T18:09:11.493Z,98269.69
2022-10-14T18:14:30.534Z,98258.66
2022-10-14T18:16:59.383Z,98268.84
2022-10-14T18:19:26.284Z,98268.50
2022-10-14T18:22:13.582Z,98274.03
2022-10-14T18:24:43.948Z,98264.44
2022-10-14T18:27:12.819Z,98262.59
2022-10-14T18:29:41.355Z,98263.59
2022-10-14T18:32:08.257Z,98263.06
2022-10-14T18:34:35.033Z,98265.72
2022-10-14T18:37:03.720Z,98271.53
2022-10-14T18:39:33.096Z,98275.13
2022-10-14T18:41:59.836Z,98277.47
2022-10-14T18:44:58.119Z,98277.16
2022-10-14T18:47:26.805Z,98265.16
2022-10-14T18:49:53.769Z,98271.69
2022-10-14T18:52:23.069Z,98268.75
2022-10-14T18:55:02.927Z,98266.13
2022-10-14T18:57:57.041Z,98264.25
2022-10-14T19:00:27.065Z,98266.81
2022-10-14T19:02:54.787Z,98268.38
2022-10-14T19:05:21.585Z,98259.44
2022-10-14T19:07:49.791Z,98251.88
2022-10-14T19:10:27.226Z,98252.88
2022-10-14T19:12:53.858Z,98257.31
2022-10-14T19:15:25.369Z,98255.16
2022-10-14T19:17:59.997Z,98257.84
2022-10-14T19:20:35.583Z,98253.59
2022-10-14T19:23:07.899Z,98250.69
2022-10-14T19:25:36.130Z,98241.84
2022-10-14T19:28:05.381Z,98245.00
2022-10-14T19:30:32.082Z,98229.22
2022-10-14T19:33:01.068Z,98239.09
2022-10-14T19:35:27.743Z,98233.13
2022-10-14T19:37:54.492Z,98224.16
2022-10-14T19:40:23.805Z,98223.56
2022-10-14T19:42:50.588Z,98230.69
2022-10-14T19:45:18.733Z,98224.66
2022-10-14T19:47:45.509Z,98217.34
2022-10-14T19:50:13.494Z,98203.94
2022-10-14T19:52:40.126Z,98194.75
2022-10-14T19:55:12.042Z,98191.69
2022-10-14T19:57:38.762Z,98192.69
2022-10-14T20:00:08.024Z,98197.38
2022-10-14T20:02:40.435Z,98199.25
2022-10-14T20:05:11.295Z,98202.66
2022-10-14T20:07:37.889Z,98208.44
2022-10-14T20:10:04.843Z,98205.81
2022-10-14T20:12:31.345Z,98204.50
2022-10-14T20:14:58.002Z,98203.50
2022-10-14T20:17:24.720Z,98191.50
2022-10-14T20:19:51.368Z,98195.50
2022-10-14T20:22:18.110Z,98192.34
2022-10-14T20:24:44.859Z,98183.72
2022-10-14T20:27:13.017Z,98184.47
2022-10-14T20:29:39.671Z,98182.91
2022-10-14T20:32:06.811Z,98171.91
2022-10-14T20:34:35.687Z,98171.38
2022-10-14T20:37:04.073Z,98169.28
2022-10-14T20:39:33.174Z,98168.22
2022-10-14T20:41:59.973Z,98175.09
2022-10-14T20:44:26.880Z,98176.44
2022-10-14T20:46:57.998Z,98180.88
2022-10-14T20:49:24.637Z,98178.44
2022-10-14T20:51:51.157Z,98171.69
2022-10-14T20:54:26.435Z,98167.97
2022-10-14T20:56:52.972Z,98163.44
2022-10-14T20:59:22.194Z,98161.66
2022-10-14T21:01:48.864Z,98165.06
2022-10-14T21:04:18.629Z,98172.63
2022-10-14T21:06:45.170Z,98173.63
2022-10-14T21:09:11.829Z,98160.03
2022-10-14T21:11:39.332Z,98158.72
2022-10-14T21:14:05.768Z,98157.19
2022-10-14T21:16:37.552Z,98153.22
2022-10-14T21:19:09.465Z,98146.09
2022-10-14T21:21:39.805Z,98146.66
2022-10-14T21:24:08.222Z,98151.94
2022-10-14T21:26:34.822Z,98145.09
2022-10-14T21:29:02.707Z,98151.34
2022-10-14T21:31:29.849Z,98148.44
2022-10-14T21:34:02.740Z,98150.56
2022-10-14T21:36:32.442Z,98154.34
2022-10-14T21:39:00.923Z,98155.16
2022-10-14T21:41:28.180Z,98151.06
2022-10-14T21:43:59.328Z,98152.13
2022-10-14T21:46:26.369Z,98145.25
2022-10-14T21:48:57.283Z,98133.50
2022-10-14T21:51:28.957Z,98138.44
2022-10-14T21:53:56.206Z,98132.72
2022-10-14T21:56:25.324Z,98129.53
2022-10-14T21:58:52.086Z,98127.97
2022-10-14T22:01:21.747Z,98122.41
2022-10-14T22:03:53.817Z,98123.19
2022-10-14T22:06:20.492Z,98118.50
2022-10-14T22:08:49.020Z,98111.16
2022-10-14T22:11:22.265Z,98107.75
2022-10-14T22:13:52.508Z,98103.00
2022-10-14T22:16:19.733Z,98098.50
2022-10-14T22:18:47.726Z,98094.34
2022-10-14T22:21:18.742Z,98092.28
2022-10-14T22:23:49.365Z,98086.19
2022-10-14T22:26:18.386Z,98093.25
2022-10-14T22:28:45.131Z,98092.47
2022-10-14T22:31:28.140Z,98085.13
2022-10-14T22:33:55.151Z,98084.06
2022-10-14T22:36:24.560Z,98079.88
2022-10-14T22:38:53.331Z,98072.69
2022-10-14T22:41:20.860Z,98067.00
2022-10-14T22:43:49.327Z,98059.66
2022-10-14T22:46:20.119Z,98052.34
2022-10-14T22:48:48.171Z,98052.91
2022-10-14T22:51:17.525Z,98057.88
2022-10-14T22:53:45.665Z,98052.91
2022-10-14T22:56:15.628Z,98041.88
2022-10-14T22:58:42.205Z,98045.53
2022-10-14T23:01:11.115Z,98041.28
2022-10-14T23:03:40.827Z,98046.03
2022-10-14T23:06:10.812Z,98037.31
2022-10-14T23:08:38.113Z,98041.53
2022-10-14T23:11:05.863Z,98029.78
2022-10-14T23:13:33.040Z,98033.19
2022-10-14T23:16:07.177Z,98031.91
2022-10-14T23:18:36.534Z,98034.25
2022-10-14T23:21:14.631Z,98032.41
2022-10-14T23:23:45.172Z,98030.84
2022-10-14T23:26:15.729Z,98030.56
2022-10-14T23:28:42.943Z,98025.56
2022-10-14T23:31:11.802Z,98029.00
2022-10-14T23:33:39.016Z,98024.78
2022-10-14T23:36:11.562Z,98019.53
2022-10-14T23:38:38.822Z,98008.50
2022-10-14T23:41:07.384Z,98016.63
2022-10-14T23:43:34.248Z,98022.66
2022-10-14T23:46:00.750Z,98014.50
2022-10-14T23:48:29.271Z,98012.13
2022-10-14T23:50:56.182Z,98012.69
2022-10-14T23:53:23.534Z,98008.13
2022-10-14T23:55:50.063Z,98012.06
2022-10-14T23:58:16.508Z,98011.41
